createdAt,value
2023-01-23T00:00:51.873Z,19.88
2023-01-23T00:03:00.736Z,21.35
2023-01-23T00:05:10.356Z,20.23
2023-01-23T00:07:18.280Z,19.90
2023-01-23T00:09:26.494Z,21.52
2023-01-23T00:11:34.415Z,21.33
2023-01-23T00:13:42.417Z,22.77
2023-01-23T00:15:52.990Z,18.67
2023-01-23T00:18:00.773Z,20.15
2023-01-23T00:20:09.881Z,19.42
2023-01-23T00:22:17.685Z,19.85
2023-01-23T00:24:25.460Z,18.08
2023-01-23T00:26:35.828Z,18.27
2023-01-23T00:28:44.110Z,17.33
2023-01-23T00:30:54.754Z,16.50
2023-01-23T00:33:03.143Z,19.20
2023-01-23T00:35:12.735Z,20.05
2023-01-23T00:37:20.751Z,18.27
2023-01-23T00:39:30.979Z,15.77
2023-01-23T00:41:40.199Z,18.17
2023-01-23T00:43:48.640Z,18.20
2023-01-23T00:46:03.547Z,20.52
2023-01-23T00:48:11.396Z,19.33
2023-01-23T00:50:20.108Z,19.48
2023-01-23T00:52:29.443Z,19.15
2023-01-23T00:54:38.299Z,22.55
2023-01-23T00:56:47.063Z,21.27
2023-01-23T00:58:56.319Z,20.92
2023-01-23T01:01:07.087Z,18.13
2023-01-23T01:03:14.953Z,19.95
2023-01-23T01:05:23.242Z,20.83
2023-01-23T01:07:31.275Z,19.13
2023-01-23T01:09:38.982Z,23.20
2023-01-23T01:11:47.577Z,21.17
2023-01-23T01:13:56.732Z,18.92
2023-01-23T01:16:08.175Z,19.80
2023-01-23T01:18:16.721Z,18.17
2023-01-23T01:20:26.172Z,18.55
2023-01-23T01:22:34.454Z,18.77
2023-01-23T01:24:44.499Z,16.75
2023-01-23T01:26:52.573Z,17.95
2023-01-23T01:29:00.481Z,17.67
2023-01-23T01:31:13.258Z,18.42
2023-01-23T01:33:24.425Z,18.98
2023-01-23T01:35:32.974Z,18.05
2023-01-23T01:37:43.456Z,19.90
2023-01-23T01:39:51.602Z,19.25
2023-01-23T01:41:59.578Z,17.77
2023-01-23T01:44:07.595Z,18.00
2023-01-23T01:46:21.856Z,20.55
2023-01-23T01:48:34.889Z,18.10
2023-01-23T01:50:43.434Z,21.25
2023-01-23T01:52:51.887Z,20.05
2023-01-23T01:55:04.533Z,23.05
2023-01-23T01:57:19.189Z,21.20
2023-01-23T01:59:31.086Z,16.33
2023-01-23T02:01:44.442Z,19.38
2023-01-23T02:03:54.597Z,20.70
2023-01-23T02:06:03.729Z,20.08
2023-01-23T02:08:19.912Z,21.00
2023-01-23T02:10:28.904Z,22.02
2023-01-23T02:12:38.939Z,19.42
2023-01-23T02:14:46.871Z,19.55
2023-01-23T02:17:01.133Z,18.77
2023-01-23T02:19:21.663Z,22.33
2023-01-23T02:21:30.117Z,18.65
2023-01-23T02:23:48.662Z,20.17
2023-01-23T02:26:08.443Z,21.77
2023-01-23T02:28:19.349Z,22.33
2023-01-23T02:30:28.134Z,22.45
2023-01-23T02:32:38.010Z,21.15
2023-01-23T02:34:46.694Z,22.23
2023-01-23T02:36:54.658Z,20.95
2023-01-23T02:39:07.483Z,19.98
2023-01-23T02:41:21.129Z,19.77
2023-01-23T02:43:35.305Z,20.65
2023-01-23T02:45:46.283Z,19.55
2023-01-23T02:47:56.025Z,20.15
2023-01-23T02:50:04.183Z,19.77
2023-01-23T02:52:13.872Z,21.65
2023-01-23T02:54:21.667Z,18.80
2023-01-23T02:56:32.388Z,22.08
2023-01-23T02:58:54.512Z,19.67
2023-01-23T03:01:02.832Z,19.52
2023-01-23T03:03:10.717Z,18.88
2023-01-23T03:05:20.179Z,18.15
2023-01-23T03:07:28.120Z,17.83
2023-01-23T03:09:36.948Z,20.30
2023-01-23T03:11:48.980Z,18.90
2023-01-23T03:13:56.907Z,18.70
2023-01-23T03:16:05.109Z,21.75
2023-01-23T03:18:13.010Z,20.95
2023-01-23T03:20:24.422Z,20.45
2023-01-23T03:22:32.374Z,19.05
2023-01-23T03:24:42.032Z,17.65
2023-01-23T03:26:54.082Z,19.80
2023-01-23T03:29:18.196Z,18.17
2023-01-23T03:31:26.688Z,19.85
2023-01-23T03:33:34.984Z,21.52
2023-01-23T03:35:42.827Z,19.42
2023-01-23T03:37:52.353Z,17.13
2023-01-23T03:40:13.140Z,20.25
2023-01-23T03:42:24.407Z,18.67
2023-01-23T03:44:34.042Z,17.65
2023-01-23T03:46:43.138Z,19.90
2023-01-23T03:48:51.182Z,18.63
2023-01-23T03:50:59.025Z,19.33
2023-01-23T03:53:06.988Z,19.00
2023-01-23T03:55:15.287Z,20.55
2023-01-23T03:57:27.137Z,18.20
2023-01-23T03:59:54.607Z,19.30
2023-01-23T04:02:08.171Z,18.90
2023-01-23T04:04:16.263Z,19.05
2023-01-23T04:06:25.760Z,19.67
2023-01-23T04:08:33.853Z,16.65
2023-01-23T04:10:41.916Z,19.05
2023-01-23T04:12:57.806Z,17.50
2023-01-23T04:15:07.152Z,20.33
2023-01-23T04:17:14.931Z,16.85
2023-01-23T04:19:23.322Z,17.65
2023-01-23T04:21:31.241Z,16.52
2023-01-23T04:23:39.348Z,15.65
2023-01-23T04:25:47.269Z,19.75
2023-01-23T04:27:58.894Z,17.75
2023-01-23T04:30:07.290Z,18.58
2023-01-23T04:32:16.471Z,18.95
2023-01-23T04:34:27.574Z,20.05
2023-01-23T04:36:36.453Z,21.83
2023-01-23T04:38:44.359Z,21.58
2023-01-23T04:41:06.815Z,20.98
2023-01-23T04:43:21.485Z,20.38
2023-01-23T04:45:32.265Z,17.92
2023-01-23T04:48:00.214Z,17.23
2023-01-23T04:50:09.469Z,21.42
2023-01-23T04:52:21.566Z,19.48
2023-01-23T04:54:36.332Z,23.55
2023-01-23T04:56:45.593Z,21.05
2023-01-23T04:58:57.768Z,19.35
2023-01-23T05:01:07.152Z,19.65
2023-01-23T05:03:17.697Z,20.45
2023-01-23T05:05:28.755Z,19.63
2023-01-23T05:07:40.707Z,19.70
2023-01-23T05:09:52.635Z,19.70
2023-01-23T05:12:00.634Z,20.15
2023-01-23T05:14:14.986Z,18.27
2023-01-23T05:16:24.146Z,18.13
2023-01-23T05:18:55.482Z,19.23
2023-01-23T05:21:04.234Z,21.05
2023-01-23T05:23:12.586Z,18.85
2023-01-23T05:25:30.975Z,18.83
2023-01-23T05:27:40.628Z,20.42
2023-01-23T05:29:53.768Z,17.08
2023-01-23T05:32:05.612Z,19.23
2023-01-23T05:34:19.359Z,22.02
2023-01-23T05:36:27.749Z,17.38
2023-01-23T05:38:35.848Z,18.20
2023-01-23T05:40:44.535Z,19.05
2023-01-23T05:42:57.937Z,18.35
2023-01-23T05:45:23.584Z,17.20
2023-01-23T05:47:32.232Z,20.85
2023-01-23T05:49:40.940Z,19.75
2023-01-23T05:51:51.203Z,20.35
2023-01-23T05:53:59.052Z,20.20
2023-01-23T05:56:09.266Z,21.08
2023-01-23T05:58:32.713Z,17.70
2023-01-23T06:01:05.056Z,20.35
2023-01-23T06:03:33.198Z,20.95
2023-01-23T06:06:17.027Z,19.38
2023-01-23T06:08:25.065Z,23.00
2023-01-23T06:10:32.856Z,21.35
2023-01-23T06:12:40.665Z,22.08
2023-01-23T06:14:50.027Z,20.85
2023-01-23T06:17:00.561Z,22.23
2023-01-23T06:19:08.532Z,18.73
2023-01-23T06:21:18.467Z,20.30
2023-01-23T06:23:26.392Z,21.70
2023-01-23T06:25:34.458Z,17.42
2023-01-23T06:27:45.863Z,18.50
2023-01-23T06:29:54.615Z,18.95
2023-01-23T06:32:05.792Z,19.27
2023-01-23T06:34:14.222Z,18.92
2023-01-23T06:36:34.079Z,22.10
2023-01-23T06:38:41.957Z,19.65
2023-01-23T06:40:53.728Z,20.35
2023-01-23T06:43:11.624Z,21.65
2023-01-23T06:45:22.656Z,21.02
2023-01-23T06:47:34.925Z,20.02
2023-01-23T06:49:42.851Z,21.52
2023-01-23T06:51:50.776Z,23.90
2023-01-23T06:53:59.324Z,21.70
2023-01-23T06:56:09.522Z,22.48
2023-01-23T06:58:19.431Z,24.27
2023-01-23T07:00:28.255Z,18.83
2023-01-23T07:02:40.826Z,20.50
2023-01-23T07:04:48.740Z,22.20
2023-01-23T07:06:57.384Z,20.15
2023-01-23T07:09:05.548Z,17.77
2023-01-23T07:11:16.067Z,22.77
2023-01-23T07:13:25.207Z,19.38
2023-01-23T07:15:34.663Z,19.50
2023-01-23T07:17:45.563Z,21.50
2023-01-23T07:19:54.383Z,23.00
2023-01-23T07:22:02.652Z,19.65
2023-01-23T07:24:10.565Z,20.52
2023-01-23T07:26:18.402Z,23.85
2023-01-23T07:28:26.204Z,21.48
2023-01-23T07:30:35.067Z,21.23
2023-01-23T07:32:47.179Z,21.90
2023-01-23T07:37:26.840Z,22.63
2023-01-23T07:39:35.826Z,17.13
2023-01-23T07:41:46.367Z,20.20
2023-01-23T07:43:54.832Z,20.92
2023-01-23T07:46:03.105Z,22.83
2023-01-23T07:48:13.535Z,20.02
2023-01-23T07:50:21.710Z,21.00
2023-01-23T07:52:29.947Z,20.98
2023-01-23T07:54:37.792Z,21.42
2023-01-23T07:56:45.572Z,19.23
2023-01-23T07:58:55.979Z,21.15
2023-01-23T08:01:12.929Z,22.10
2023-01-23T08:03:23.640Z,22.60
2023-01-23T08:05:31.620Z,20.45
2023-01-23T08:07:39.558Z,19.08
2023-01-23T08:09:47.574Z,16.52
2023-01-23T08:11:55.561Z,18.13
2023-01-23T08:14:03.601Z,20.15
2023-01-23T08:16:13.664Z,21.40
2023-01-23T08:18:24.251Z,20.02
2023-01-23T08:20:32.211Z,21.08
2023-01-23T08:22:40.990Z,17.95
2023-01-23T08:24:49.108Z,22.23
2023-01-23T08:26:57.156Z,21.75
2023-01-23T08:29:06.278Z,18.10
2023-01-23T08:31:16.399Z,18.75
2023-01-23T08:33:26.971Z,19.88
2023-01-23T08:35:34.923Z,17.77
2023-01-23T08:37:42.823Z,18.70
2023-01-23T08:39:50.942Z,18.10
2023-01-23T08:41:59.615Z,19.33
2023-01-23T08:44:07.644Z,17.75
2023-01-23T08:46:15.559Z,17.90
2023-01-23T08:48:28.303Z,16.13
2023-01-23T08:50:37.097Z,21.55
2023-01-23T08:52:45.151Z,20.55
2023-01-23T08:54:53.127Z,18.95
2023-01-23T08:57:01.132Z,17.77
2023-01-23T08:59:09.063Z,19.10
2023-01-23T09:01:18.174Z,17.17
2023-01-23T09:03:29.375Z,19.67
2023-01-23T09:05:39.438Z,16.48
2023-01-23T09:07:47.360Z,17.38
2023-01-23T09:09:55.130Z,17.38
2023-01-23T09:12:02.971Z,21.20
2023-01-23T09:14:10.732Z,16.83
2023-01-23T09:16:19.319Z,17.40
2023-01-23T09:18:30.065Z,15.80
2023-01-23T09:20:37.940Z,20.92
2023-01-23T09:22:46.153Z,15.68
2023-01-23T09:24:54.163Z,15.32
2023-01-23T09:27:01.983Z,18.05
2023-01-23T09:29:09.941Z,16.33
2023-01-23T09:31:18.006Z,17.58
2023-01-23T09:33:27.680Z,15.88
2023-01-23T09:35:38.274Z,14.30
2023-01-23T09:37:58.860Z,14.10
2023-01-23T09:40:09.132Z,16.45
2023-01-23T09:42:22.785Z,14.80
2023-01-23T09:44:39.594Z,13.55
2023-01-23T09:46:52.580Z,12.25
2023-01-23T09:49:05.705Z,14.73
2023-01-23T09:51:24.702Z,13.75
2023-01-23T09:53:38.982Z,15.13
2023-01-23T09:55:52.346Z,14.07
2023-01-23T09:58:03.565Z,13.25
2023-01-23T10:00:18.564Z,14.57
2023-01-23T10:02:27.350Z,15.00
2023-01-23T10:04:35.495Z,13.90
2023-01-23T10:07:05.930Z,12.98
2023-01-23T10:09:33.252Z,13.57
2023-01-23T10:11:52.046Z,14.35
2023-01-23T10:14:17.532Z,13.18
2023-01-23T10:16:49.390Z,12.40
2023-01-23T10:19:11.965Z,14.27
2023-01-23T10:21:28.212Z,13.70
2023-01-23T10:24:00.085Z,16.45
2023-01-23T10:26:08.361Z,12.13
2023-01-23T10:28:27.048Z,13.05
2023-01-23T10:30:38.740Z,15.40
2023-01-23T10:32:52.713Z,13.98
2023-01-23T10:35:05.476Z,16.17
2023-01-23T10:37:21.899Z,16.50
2023-01-23T10:39:41.883Z,14.82
2023-01-23T10:42:01.487Z,14.40
2023-01-23T10:44:18.058Z,15.07
2023-01-23T10:46:32.093Z,14.50
2023-01-23T10:48:47.295Z,15.63
2023-01-23T10:50:55.486Z,14.35
2023-01-23T10:53:11.398Z,13.45
2023-01-23T10:55:34.000Z,14.00
2023-01-23T10:57:49.424Z,16.63
2023-01-23T11:00:01.674Z,14.77
2023-01-23T11:02:23.728Z,15.00
2023-01-23T11:04:34.365Z,16.02
2023-01-23T11:06:42.469Z,13.88
2023-01-23T11:08:58.265Z,17.35
2023-01-23T11:11:28.751Z,14.70
2023-01-23T11:13:36.573Z,16.33
2023-01-23T11:15:44.433Z,14.75
2023-01-23T11:17:53.654Z,15.60
2023-01-23T11:20:02.066Z,15.85
2023-01-23T11:22:29.898Z,16.13
2023-01-23T11:24:41.397Z,14.48
2023-01-23T11:27:02.018Z,14.63
2023-01-23T11:29:24.530Z,16.20
2023-01-23T11:31:35.434Z,17.10
2023-01-23T11:33:48.422Z,14.35
2023-01-23T11:36:03.972Z,17.48
2023-01-23T11:38:17.992Z,15.93
2023-01-23T11:40:29.286Z,16.13
2023-01-23T11:42:42.540Z,16.75
2023-01-23T11:44:53.482Z,16.33
2023-01-23T11:47:19.316Z,16.33
2023-01-23T11:49:40.666Z,15.70
2023-01-23T11:51:55.656Z,13.75
2023-01-23T11:54:19.573Z,16.38
2023-01-23T11:56:48.225Z,15.65
2023-01-23T11:59:22.504Z,18.73
2023-01-23T12:01:37.283Z,15.45
2023-01-23T12:04:19.923Z,15.40
2023-01-23T12:07:01.498Z,15.80
2023-01-23T12:09:16.061Z,16.95
2023-01-23T12:11:25.693Z,16.98
2023-01-23T12:13:52.384Z,15.13
2023-01-23T12:16:17.236Z,17.98
2023-01-23T12:18:40.499Z,14.77
2023-01-23T12:20:55.584Z,20.88
2023-01-23T12:23:17.659Z,19.10
2023-01-23T12:25:46.728Z,16.50
2023-01-23T12:28:02.498Z,16.05
2023-01-23T12:30:31.609Z,15.30
2023-01-23T12:32:55.634Z,16.02
2023-01-23T12:35:20.645Z,17.33
2023-01-23T12:37:46.547Z,17.30
2023-01-23T12:40:10.101Z,16.83
2023-01-23T12:42:24.575Z,16.23
2023-01-23T12:44:39.301Z,17.88
2023-01-23T12:46:54.333Z,17.02
2023-01-23T12:49:17.298Z,16.88
2023-01-23T12:51:29.895Z,14.57
2023-01-23T12:53:41.374Z,15.80
2023-01-23T12:55:58.611Z,15.85
2023-01-23T12:58:09.641Z,15.13
2023-01-23T13:00:28.491Z,13.93
2023-01-23T13:02:42.120Z,15.70
2023-01-23T13:05:05.663Z,15.85
2023-01-23T13:07:28.227Z,20.02
2023-01-23T13:09:46.057Z,16.55
2023-01-23T13:12:05.065Z,15.88
2023-01-23T13:14:25.430Z,19.75
2023-01-23T13:16:34.693Z,15.63
2023-01-23T13:18:55.548Z,14.35
2023-01-23T13:21:19.662Z,16.08
2023-01-23T13:23:33.883Z,15.60
2023-01-23T13:25:41.852Z,14.48
2023-01-23T13:27:55.912Z,14.98
2023-01-23T13:30:04.471Z,15.68
2023-01-23T13:32:24.550Z,13.63
2023-01-23T13:34:42.083Z,13.38
2023-01-23T13:36:53.909Z,14.27
2023-01-23T13:39:27.129Z,14.70
2023-01-23T13:41:37.466Z,14.93
2023-01-23T13:43:46.552Z,14.10
2023-01-23T13:45:54.829Z,13.75
2023-01-23T14:21:55.148Z,12.93
2023-01-23T14:24:04.902Z,12.45
2023-01-23T14:26:18.104Z,12.43
2023-01-23T14:28:28.551Z,14.30
2023-01-23T14:30:36.470Z,14.48
2023-01-23T14:32:45.959Z,13.63
2023-01-23T14:34:54.055Z,13.10
2023-01-23T14:37:05.477Z,14.30
2023-01-23T14:39:19.921Z,13.32
2023-01-23T14:41:31.705Z,14.50
2023-01-23T14:43:44.818Z,15.98
2023-01-23T14:45:58.683Z,14.25
2023-01-23T14:48:10.295Z,12.45
2023-01-23T14:50:21.783Z,14.52
2023-01-23T14:52:31.501Z,12.30
2023-01-23T14:54:42.024Z,15.38
2023-01-23T14:56:50.308Z,13.73
2023-01-23T14:59:04.641Z,13.75
2023-01-23T15:01:14.001Z,13.18
2023-01-23T15:03:41.699Z,13.15
2023-01-23T15:06:00.394Z,17.58
2023-01-23T15:08:20.486Z,14.07
2023-01-23T15:10:31.680Z,13.38
2023-01-23T15:12:40.069Z,17.48
2023-01-23T15:15:01.501Z,17.05
2023-01-23T15:17:16.663Z,14.90
2023-01-23T15:19:26.889Z,17.25
2023-01-23T15:21:37.468Z,13.20
2023-01-23T15:24:03.258Z,15.20
2023-01-23T15:26:34.640Z,15.70
2023-01-23T15:28:46.300Z,15.30
2023-01-23T15:30:56.953Z,14.95
2023-01-23T15:33:07.487Z,15.32
2023-01-23T15:35:19.414Z,13.32
2023-01-23T15:37:29.763Z,15.38
2023-01-23T15:39:41.540Z,17.60
2023-01-23T15:41:53.270Z,17.55
2023-01-23T15:44:01.089Z,16.05
2023-01-23T15:46:13.539Z,16.60
2023-01-23T15:48:22.396Z,16.15
2023-01-23T15:50:30.769Z,14.90
2023-01-23T15:52:49.677Z,17.23
2023-01-23T15:55:02.033Z,15.25
2023-01-23T15:57:10.131Z,16.52
2023-01-23T15:59:19.916Z,15.75
2023-01-23T16:01:31.362Z,15.50
2023-01-23T16:03:39.317Z,15.45
2023-01-23T16:05:47.306Z,17.70
2023-01-23T16:07:56.872Z,17.80
2023-01-23T16:10:08.075Z,15.27
2023-01-23T16:12:19.571Z,16.60
2023-01-23T16:14:27.463Z,19.02
2023-01-23T16:16:38.167Z,19.15
2023-01-23T16:18:47.261Z,16.75
2023-01-23T16:20:56.682Z,16.38
2023-01-23T16:23:14.391Z,18.20
2023-01-23T16:25:43.396Z,18.55
2023-01-23T16:27:52.383Z,16.77
2023-01-23T16:30:00.385Z,17.60
2023-01-23T16:32:12.075Z,15.43
2023-01-23T16:34:20.146Z,17.75
2023-01-23T16:36:28.039Z,20.85
2023-01-23T16:38:36.402Z,17.17
2023-01-23T16:40:44.316Z,19.45
2023-01-23T16:42:54.346Z,18.50
2023-01-23T16:45:02.414Z,20.10
2023-01-23T16:47:12.913Z,18.90
2023-01-23T16:49:20.787Z,18.80
2023-01-23T16:51:29.054Z,18.50
2023-01-23T16:53:39.924Z,18.65
2023-01-23T16:55:48.708Z,20.77
2023-01-23T16:57:59.231Z,15.57
2023-01-23T17:00:08.459Z,20.60
2023-01-23T17:02:24.800Z,19.00
2023-01-23T17:04:32.648Z,19.60
2023-01-23T17:06:40.876Z,19.10
2023-01-23T17:08:50.226Z,19.90
2023-01-23T17:11:00.754Z,19.65
2023-01-23T17:13:09.155Z,21.13
2023-01-23T17:15:24.093Z,19.65
2023-01-23T17:17:38.266Z,17.63
2023-01-23T17:19:47.081Z,18.98
2023-01-23T17:21:54.993Z,18.60
2023-01-23T17:24:03.332Z,18.95
2023-01-23T17:26:17.027Z,20.88
2023-01-23T17:28:25.191Z,21.13
2023-01-23T17:30:33.310Z,18.58
2023-01-23T17:32:43.992Z,19.95
2023-01-23T17:34:52.142Z,19.45
2023-01-23T17:37:00.218Z,18.48
2023-01-23T17:39:08.782Z,21.58
2023-01-23T17:41:17.206Z,17.90
2023-01-23T17:43:26.620Z,19.00
2023-01-23T17:45:34.934Z,20.23
2023-01-23T17:47:47.501Z,22.30
2023-01-23T17:49:57.265Z,18.80
2023-01-23T17:52:05.300Z,18.77
2023-01-23T17:54:21.700Z,19.10
2023-01-23T17:56:29.554Z,20.65
2023-01-23T17:58:38.982Z,21.90
2023-01-23T18:00:52.586Z,18.38
2023-01-23T18:03:05.655Z,18.98
2023-01-23T18:05:14.784Z,18.67
2023-01-23T18:07:22.682Z,19.88
2023-01-23T18:09:30.540Z,19.48
2023-01-23T18:11:41.014Z,19.80
2023-01-23T18:14:18.292Z,20.83
2023-01-23T18:16:28.729Z,21.52
2023-01-23T18:18:43.100Z,20.58
2023-01-23T18:21:01.765Z,18.65
2023-01-23T18:23:14.551Z,19.98
2023-01-23T18:25:25.084Z,20.20
2023-01-23T18:27:39.419Z,21.73
2023-01-23T18:29:58.829Z,19.15
2023-01-23T18:32:29.963Z,19.35
2023-01-23T18:34:52.055Z,20.08
2023-01-23T18:37:11.049Z,18.13
2023-01-23T18:39:36.816Z,20.85
2023-01-23T18:41:57.154Z,17.80
2023-01-23T18:44:09.976Z,18.23
2023-01-23T18:46:20.480Z,19.90
2023-01-23T18:48:29.908Z,19.65
2023-01-23T18:50:46.929Z,19.67
2023-01-23T18:53:09.696Z,19.60
2023-01-23T18:55:27.678Z,22.48
2023-01-23T18:57:50.446Z,21.00
2023-01-23T19:00:12.945Z,23.38
2023-01-23T19:02:33.286Z,21.08
2023-01-23T19:04:48.266Z,19.05
2023-01-23T19:06:59.656Z,20.13
2023-01-23T19:09:08.543Z,21.60
2023-01-23T19:11:27.544Z,19.00
2023-01-23T19:13:47.104Z,20.30
2023-01-23T19:16:09.904Z,19.95
2023-01-23T19:18:39.786Z,19.17
2023-01-23T19:20:53.651Z,18.90
2023-01-23T19:23:35.715Z,20.23
2023-01-23T19:25:45.495Z,21.70
2023-01-23T19:27:57.310Z,20.40
2023-01-23T19:30:06.002Z,20.77
2023-01-23T19:32:14.812Z,17.00
2023-01-23T19:34:23.391Z,16.67
2023-01-23T19:36:33.588Z,17.50
2023-01-23T19:38:44.269Z,18.13
2023-01-23T19:40:52.629Z,20.83
2023-01-23T19:43:13.669Z,18.67
2023-01-23T19:45:23.981Z,20.00
2023-01-23T19:47:32.553Z,20.88
2023-01-23T19:49:40.957Z,18.58
2023-01-23T19:51:49.425Z,20.88
2023-01-23T19:54:00.446Z,19.88
2023-01-23T19:56:09.237Z,18.52
2023-01-23T19:58:17.441Z,19.17
2023-01-23T20:00:26.383Z,20.55
2023-01-23T20:02:34.456Z,19.10
2023-01-23T20:04:42.293Z,18.63
2023-01-23T20:06:52.270Z,18.40
2023-01-23T20:09:02.975Z,17.33
2023-01-23T20:11:12.870Z,15.88
2023-01-23T20:13:20.956Z,18.38
2023-01-23T20:15:30.091Z,21.80
2023-01-23T20:17:38.326Z,20.52
2023-01-23T20:19:48.132Z,21.25
2023-01-23T20:21:55.995Z,18.02
2023-01-23T20:24:08.459Z,19.27
2023-01-23T20:26:20.554Z,21.30
2023-01-23T20:28:28.351Z,18.77
2023-01-23T20:30:36.631Z,20.45
2023-01-23T20:32:44.578Z,20.50
2023-01-23T20:34:53.070Z,18.88
2023-01-23T20:37:00.887Z,20.65
2023-01-23T20:39:13.043Z,22.17
2023-01-23T20:41:24.687Z,20.38
2023-01-23T20:43:32.583Z,20.00
2023-01-23T20:45:50.481Z,20.33
2023-01-23T20:47:58.872Z,17.90
2023-01-23T20:50:07.430Z,19.95
2023-01-23T20:52:27.680Z,19.42
2023-01-23T20:54:38.157Z,20.85
2023-01-23T20:56:46.048Z,18.05
2023-01-23T20:59:06.897Z,17.00
2023-01-23T21:01:15.896Z,22.33
2023-01-23T21:03:23.718Z,21.52
2023-01-23T21:05:31.819Z,19.33
2023-01-23T21:07:39.998Z,20.05
2023-01-23T21:09:51.282Z,20.65
2023-01-23T21:11:59.908Z,19.67
2023-01-23T21:14:08.126Z,21.58
2023-01-23T21:16:18.933Z,19.08
2023-01-23T21:18:27.954Z,23.15
2023-01-23T21:20:36.747Z,21.30
2023-01-23T21:22:45.691Z,20.63
2023-01-23T21:24:56.360Z,22.63
2023-01-23T21:27:04.876Z,23.20
2023-01-23T21:29:13.456Z,22.35
2023-01-23T21:31:24.383Z,23.38
2023-01-23T21:33:32.347Z,18.73
2023-01-23T21:35:40.337Z,23.55
2023-01-23T21:37:48.508Z,21.63
2023-01-23T21:39:59.384Z,24.13
2023-01-23T21:42:10.045Z,19.15
2023-01-23T21:44:18.063Z,21.85
2023-01-23T21:46:26.783Z,21.65
2023-01-23T21:48:36.201Z,18.80
2023-01-23T21:50:43.940Z,22.23
2023-01-23T21:52:52.190Z,20.00
2023-01-23T21:55:02.740Z,18.08
2023-01-23T21:57:10.804Z,20.77
2023-01-23T21:59:19.388Z,20.95
2023-01-23T22:01:42.689Z,22.55
2023-01-23T22:03:52.112Z,23.63
2023-01-23T22:06:01.640Z,20.65
2023-01-23T22:08:09.556Z,20.15
2023-01-23T22:10:20.092Z,21.70
2023-01-23T22:12:28.816Z,19.83
2023-01-23T22:14:36.712Z,22.10
2023-01-23T22:16:49.742Z,20.35
2023-01-23T22:18:58.753Z,20.33
2023-01-23T22:21:08.795Z,21.30
2023-01-23T22:23:16.549Z,20.10
2023-01-23T22:25:26.894Z,19.50
2023-01-23T22:27:34.659Z,20.25
2023-01-23T22:29:42.387Z,22.63
2023-01-23T22:31:51.368Z,19.20
2023-01-23T22:33:59.210Z,20.02
2023-01-23T22:36:08.562Z,17.50
2023-01-23T22:38:18.286Z,19.05
2023-01-23T22:40:28.764Z,21.65
2023-01-23T22:42:36.601Z,20.02
2023-01-23T22:44:44.596Z,19.58
2023-01-23T22:46:53.025Z,19.38
2023-01-23T22:49:00.878Z,20.00
2023-01-23T22:51:10.467Z,19.95
2023-01-23T22:53:18.410Z,18.60
2023-01-23T22:55:29.065Z,17.80
2023-01-23T22:57:36.930Z,17.63
2023-01-23T22:59:44.853Z,18.95
2023-01-23T23:01:52.599Z,17.35
2023-01-23T23:04:01.535Z,17.05
2023-01-23T23:06:12.214Z,18.10
2023-01-23T23:08:19.973Z,17.75
2023-01-23T23:10:30.537Z,17.67
2023-01-23T23:12:38.321Z,19.02
2023-01-23T23:14:46.212Z,19.38
2023-01-23T23:16:53.923Z,18.73
2023-01-23T23:19:05.265Z,17.23
2023-01-23T23:21:15.589Z,15.73
2023-01-23T23:23:24.217Z,19.20
2023-01-23T23:25:34.848Z,20.27
2023-01-23T23:27:43.062Z,19.48
2023-01-23T23:29:50.804Z,20.92
2023-01-23T23:31:58.893Z,18.42
2023-01-23T23:34:06.939Z,17.42
2023-01-23T23:36:15.479Z,17.35
2023-01-23T23:38:23.997Z,21.83
2023-01-23T23:40:34.418Z,19.20
2023-01-23T23:42:42.471Z,18.75
2023-01-23T23:44:50.296Z,17.48
2023-01-23T23:46:58.091Z,19.00
2023-01-23T23:49:06.013Z,19.17
2023-01-23T23:51:16.546Z,21.05
2023-01-23T23:53:25.018Z,19.25
2023-01-23T23:55:35.462Z,20.40
2023-01-23T23:57:43.565Z,21.65
2023-01-23T23:59:51.565Z,19.15
